Aktualne dane pomiarowe

Uwaga, wersja testowa! Automatyczne pobieranie danych za pomocą narzędzi lub skryptów to umożliwiających jest zabronione.

Dane meteo z obszaru Polski uzyskane na podstawie depesz SYNOP pobieranych co godzinę z NWS. Najedź myszką na symbol przedstawiony w tabeli, aby uzyskać informacje co do jego znaczenia. Prosimy pamiętać, że to testowa wersja strony, która jeszcze nie jest ukończona. Stworzono również jest krótki FAQ dotyczący korzystania z tej podstrony Anomalie temperatury w chwili obecnej odniesione są do okresu referencyjnego 1951-2016. Okres ten będzie później zmieniony na 1981-2010. Kliknij ikonę aby pobrać plik CSV. Kliknij ikonę aby wygenerować mapę synoptyczną dla danego terminu.

Wybierz Datę:    

        

Ostrołęka (12285)

Dane terminowe dla wybranej stacji. Kliknij datę, aby otrzymać dane z tego terminu dla wszystkich stacji.

TemperaturaZachmurzenieWiatrCiśnienieOpadyPogoda
 Data t td wb tx tn tg rh  Nt Nl Cl Cm Ch ws wd g1 g2 wx mslp ppp ch 24h 12h t ww ww w1 w2  
2019-07-12 23:00:00 13.8 12.9 13.1--- 949.0--1----1010.0 998.6 0.0---wx-----
2019-07-12 22:00:00 14.6 13.6 13.9--- 946.0--0----1010.0 998.7 0.2---wx-----
2019-07-12 21:00:00 15.5 14.2 14.6--- 9211.0--0----1010.0 998.7 0.5---------
2019-07-12 20:00:00 16.3 14.4 15.0--- 8920.0--0----1010.0 998.7 0.6---------
2019-07-12 19:00:00 18.4 14.1 15.5--- 7620.0--1wx---1009.6 998.5 0.4---------
2019-07-12 18:00:00 21.2 13.4 16.2 23.8 16.7- 6120.0--1----1009.2 998.2 -0.3- 0.012------
2019-07-12 17:00:00 22.0 13.3 16.5--- 5820.0--1----1009.1 998.1 -0.6---------
2019-07-12 16:00:00 21.6 13.2 16.3--- 5920.0--1----1009.1 998.1 -0.3---------
2019-07-12 15:00:00 19.8 15.0 16.6--- 7420.0--1----1009.6 998.5 0.0---------
2019-07-12 14:00:00 19.8 13.8 15.9--- 6810.0--4----1009.8 998.7 0.0---wx-----
2019-07-12 13:00:00 23.5 12.0 16.5--- 4820.0--2----1009.4 998.4 -0.5---------
2019-07-12 12:00:00 22.7 11.8 16.1--- 5020.0--3----1009.5 998.5 -0.4- 0.06------
2019-07-12 11:00:00 22.3 9.4 14.8--- 4420.0--3----1009.8 998.8 -0.4---------
2019-07-12 10:00:00 22.4 9.0 14.6--- 4220.0--3----1009.9 998.9 -0.3---------
2019-07-12 09:00:00 21.1 8.1 13.7--- 4320.0--0----1010.0 999.0 -0.3---------
2019-07-12 08:00:00 19.9 9.4 13.7--- 5120.0--3----1010.3 999.2 0.0---------
2019-07-12 07:00:00 18.5 9.5 13.1--- 5620.0--2----1010.4 999.3 0.0---------
2019-07-12 06:00:00 16.8 9.9 12.6 19.0 9.0 6 6420.0--2----1010.5 999.3 0.0 0.1 0.012----- 0.0
2019-07-12 05:00:00 14.0 10.3 11.6--- 7820.0--0----1010.6 999.3 0.0---------
2019-07-12 04:00:00 11.5 9.6 10.2--- 8820.0--1----1010.8 999.4 0.0---------
2019-07-12 03:00:00 10.5 8.8 9.3--- 8920.0--1wx---1010.8 999.3 -0.5---------
2019-07-12 02:00:00 9.5 8.5 8.8--- 9320.0--1----1010.8 999.3 -0.6---------
2019-07-12 01:00:00 9.4 8.4 8.7--- 9320.0--1wx---1011.0 999.5 -0.5---------
2019-07-12 00:00:00 9.1 8.3 8.5--- 9520.0--1wx---1011.3 999.8 0.0- 0.06------
2019-07-11 23:00:00 9.4 8.4 8.7--- 9320.0--1wx---1011.4 999.9 0.3---------
2019-07-11 22:00:00 10.8 9.1 9.6--- 8920.0--1----1011.4 999.9 0.6---------
2019-07-11 21:00:00 12.7 9.6 10.7--- 8120.0--0----1011.2 999.8 0.8---------
2019-07-11 20:00:00 14.7 9.6 11.5--- 7220.0--1----1011.0 999.7 0.7---------
2019-07-11 19:00:00 16.9 9.8 12.6--- 6320.0--1wx---1010.5 999.3 0.4---------
2019-07-11 18:00:00 19.0 9.8 13.5 21.5 13.2- 5520.0--1----1010.1 999.0 0.0- 0.012------
2019-07-11 17:00:00 19.5 9.7 13.7--- 5320.0--1----1010.0 998.9 -0.3---------
2019-07-11 16:00:00 19.9 8.5 13.3--- 4820.0--2----1010.0 998.9 -0.4---------
2019-07-11 15:00:00 20.8 9.5 14.2--- 4820.0--3----1010.1 999.0 -0.7---------
2019-07-11 14:00:00 19.5 9.4 13.5--- 5220.0--3----1010.3 999.2 -0.6---------
2019-07-11 13:00:00 19.4 9.9 13.7--- 5420.0--2----1010.4 999.3 -0.6---------
2019-07-11 12:00:00 19.0 10.2 13.7--- 5720.0--3----1010.8 999.7 -0.5- 0.06------
2019-07-11 11:00:00 17.6 10.4 13.2--- 6320.0--3----1011.0 999.8 0.0---------
2019-07-11 10:00:00 16.7 11.2 13.2--- 7020.0--2----1011.1 999.9 0.2---------
2019-07-11 09:00:00 15.8 12.7 13.7--- 8220.0--1----1011.41000.2 0.6---------
2019-07-11 08:00:00 16.0 11.7 13.2--- 7620.0--2----1011.0 999.8 0.6---------
11.3 ms

 

Print Friendly, PDF & Email